Elizabethtown, Pennsylvania
Current Conditions -  °F | °C
As of 3:56 AM on Friday 24 Oct 2014 (Local Time) from KMDT Reporting Station
Broken Clouds Broken Clouds  
Wind Chill: 56°   Ceiling: 4000
Heat Index: 56°   Visibility: 10mi
Dew Point: 43°   Wind: 17mph
Humidity: 62%   Direction: 320°NW
Pressure: 29.89"   Gusts: 22mph
Location:  40.15°N, 76.61°W
Report Text: KMDT 240756Z 32015G19KT 10SM BKN040 13/06 A2989 RMK AO2 SLP121 T01330061 $
Loading
Personal Weather Stations






























Interactive Weather Map
Tropical Storm Tracking
New forecast layout! Learn more

10-Day Weather Forecast

Advertisements
Track Severe Weather on mobile